createdAt,value
2023-03-16T00:02:06.689Z,6.03
2023-03-16T00:04:37.747Z,8.48
2023-03-16T00:07:05.842Z,6.93
2023-03-16T00:09:32.397Z,4.15
2023-03-16T00:12:05.823Z,4.28
2023-03-16T00:14:35.663Z,3.97
2023-03-16T00:17:06.571Z,4.40
2023-03-16T00:19:35.159Z,5.18
2023-03-16T00:22:01.633Z,5.40
2023-03-16T00:24:28.139Z,5.60
2023-03-16T00:26:55.000Z,5.03
2023-03-16T00:29:22.709Z,4.80
2023-03-16T00:31:49.352Z,4.45
2023-03-16T00:34:16.533Z,7.18
2023-03-16T00:36:43.065Z,4.88
2023-03-16T00:39:11.699Z,4.78
2023-03-16T00:41:38.812Z,4.13
2023-03-16T00:44:05.850Z,4.80
2023-03-16T00:46:32.493Z,7.40
2023-03-16T00:48:59.218Z,4.70
2023-03-16T00:51:25.742Z,5.95
2023-03-16T00:53:52.206Z,4.75
2023-03-16T00:56:19.014Z,6.07
2023-03-16T00:58:45.592Z,4.72
2023-03-16T01:01:18.938Z,4.60
2023-03-16T01:03:45.974Z,6.72
2023-03-16T01:06:17.088Z,5.13
2023-03-16T01:08:44.287Z,5.28
2023-03-16T01:11:13.894Z,5.25
2023-03-16T01:13:40.945Z,8.60
2023-03-16T01:16:08.208Z,5.13
2023-03-16T01:18:34.995Z,6.72
2023-03-16T01:21:07.280Z,4.93
2023-03-16T01:23:34.084Z,4.88
2023-03-16T01:26:02.066Z,5.50
2023-03-16T01:28:31.825Z,10.05
2023-03-16T01:31:09.915Z,5.30
2023-03-16T01:33:36.799Z,7.65
2023-03-16T01:36:07.537Z,9.40
2023-03-16T01:38:34.469Z,5.10
2023-03-16T01:41:01.552Z,5.50
2023-03-16T01:43:30.868Z,5.57
2023-03-16T01:46:06.664Z,5.10
2023-03-16T01:48:43.876Z,6.22
2023-03-16T01:51:22.601Z,7.28
2023-03-16T01:53:53.286Z,5.60
2023-03-16T01:56:25.571Z,5.68
2023-03-16T01:58:58.690Z,6.72
2023-03-16T02:01:27.690Z,7.53
2023-03-16T02:04:07.448Z,4.88
2023-03-16T02:06:35.747Z,4.85
2023-03-16T02:09:02.899Z,5.57
2023-03-16T02:11:30.555Z,5.90
2023-03-16T02:14:02.605Z,10.00
2023-03-16T02:16:29.112Z,6.25
2023-03-16T02:18:55.709Z,8.23
2023-03-16T02:21:25.558Z,7.35
2023-03-16T02:23:53.438Z,6.70
2023-03-16T02:26:28.704Z,7.90
2023-03-16T02:29:07.154Z,6.25
2023-03-16T02:31:34.220Z,5.63
2023-03-16T02:34:01.956Z,7.70
2023-03-16T02:36:30.008Z,7.05
2023-03-16T02:38:56.540Z,10.57
2023-03-16T02:41:23.103Z,6.05
2023-03-16T02:49:05.736Z,7.50
2023-03-16T02:51:32.416Z,7.90
2023-03-16T02:53:59.134Z,6.78
2023-03-16T02:56:25.731Z,8.90
2023-03-16T02:58:52.246Z,7.70
2023-03-16T03:01:18.791Z,7.90
2023-03-16T03:03:45.532Z,7.15
2023-03-16T03:06:12.060Z,7.35
2023-03-16T03:08:38.645Z,7.38
2023-03-16T03:11:05.407Z,7.70
2023-03-16T03:13:31.936Z,6.82
2023-03-16T03:15:58.540Z,8.18
2023-03-16T03:18:25.432Z,11.45
2023-03-16T03:20:52.064Z,7.28
2023-03-16T03:23:18.608Z,8.63
2023-03-16T03:25:45.767Z,8.30
2023-03-16T03:28:12.305Z,7.30
2023-03-16T03:30:38.845Z,9.25
2023-03-16T03:33:05.647Z,9.48
2023-03-16T03:35:32.347Z,6.68
2023-03-16T03:37:58.916Z,8.82
2023-03-16T03:40:26.266Z,8.35
2023-03-16T03:42:53.004Z,10.77
2023-03-16T03:45:19.845Z,12.13
2023-03-16T03:47:46.392Z,11.65
2023-03-16T03:50:14.188Z,12.40
2023-03-16T03:52:41.265Z,14.40
2023-03-16T03:55:08.449Z,13.85
2023-03-16T03:57:35.256Z,11.52
2023-03-16T04:00:02.018Z,9.60
2023-03-16T04:02:28.692Z,9.77
2023-03-16T04:04:55.383Z,54.45
2023-03-16T04:46:29.593Z,10.80
2023-03-16T04:48:58.380Z,17.83
2023-03-16T04:51:26.082Z,16.65
2023-03-16T04:53:52.634Z,11.48
2023-03-16T04:56:19.314Z,12.57
2023-03-16T04:58:50.439Z,13.35
2023-03-16T05:01:18.433Z,13.30
2023-03-16T05:03:45.089Z,43.65
2023-03-16T05:06:12.365Z,14.60
2023-03-16T05:08:39.213Z,10.55
2023-03-16T05:11:05.955Z,15.63
2023-03-16T05:13:32.887Z,15.90
2023-03-16T05:15:59.553Z,15.65
2023-03-16T05:18:27.055Z,27.88
2023-03-16T05:20:55.925Z,19.58
2023-03-16T05:23:23.195Z,16.10
2023-03-16T05:30:45.137Z,27.95
2023-03-16T05:33:11.846Z,23.23
2023-03-16T05:35:38.513Z,28.67
2023-03-16T05:38:05.288Z,31.45
2023-03-16T05:40:33.070Z,25.27
2023-03-16T05:43:00.608Z,45.30
2023-03-16T05:45:27.736Z,17.70
2023-03-16T05:47:54.381Z,20.38
2023-03-16T05:50:21.091Z,17.80
2023-03-16T05:52:48.321Z,19.67
2023-03-16T05:55:16.858Z,15.93
2023-03-16T05:57:44.411Z,15.50
2023-03-16T06:00:16.821Z,24.77
2023-03-16T06:02:44.791Z,21.50
2023-03-16T06:05:11.508Z,20.67
2023-03-16T06:07:38.218Z,21.38
2023-03-16T06:10:06.356Z,40.85
2023-03-16T06:12:34.436Z,17.08
2023-03-16T06:15:02.085Z,18.20
2023-03-16T06:17:28.636Z,14.48
2023-03-16T06:19:55.147Z,16.65
2023-03-16T06:22:21.803Z,16.17
2023-03-16T06:24:48.933Z,15.70
2023-03-16T06:27:15.441Z,17.00
2023-03-16T06:29:42.040Z,14.15
2023-03-16T06:32:08.585Z,16.10
2023-03-16T06:34:37.611Z,14.15
2023-03-16T06:37:04.743Z,15.70
2023-03-16T06:39:31.258Z,17.90
2023-03-16T06:41:58.015Z,25.90
2023-03-16T06:44:24.730Z,17.67
2023-03-16T06:46:51.274Z,23.80
2023-03-16T06:49:17.764Z,19.30
2023-03-16T06:51:44.309Z,20.17
2023-03-16T06:54:11.748Z,19.60
2023-03-16T06:56:38.243Z,19.70
2023-03-16T06:59:04.743Z,18.83
2023-03-16T07:01:31.816Z,16.83
2023-03-16T07:03:58.534Z,17.55
2023-03-16T07:06:25.141Z,18.58
2023-03-16T07:08:51.670Z,19.33
2023-03-16T07:11:18.230Z,12.68
2023-03-16T07:13:44.805Z,21.02
2023-03-16T07:16:11.336Z,18.90
2023-03-16T07:18:44.180Z,13.57
2023-03-16T07:21:11.371Z,14.88
2023-03-16T07:23:37.894Z,11.57
2023-03-16T07:26:04.471Z,14.77
2023-03-16T07:28:32.232Z,11.40
2023-03-16T07:31:03.844Z,15.20
2023-03-16T07:33:32.658Z,14.10
2023-03-16T07:35:59.664Z,17.77
2023-03-16T07:38:26.345Z,13.40
2023-03-16T07:40:52.828Z,11.27
2023-03-16T07:43:19.712Z,12.30
2023-03-16T07:45:52.871Z,11.90
2023-03-16T07:48:19.854Z,11.90
2023-03-16T07:50:49.852Z,10.73
2023-03-16T07:53:16.751Z,11.80
2023-03-16T07:55:44.061Z,9.88
2023-03-16T07:58:11.710Z,11.50
2023-03-16T08:00:39.057Z,15.07
2023-03-16T08:03:06.165Z,16.40
2023-03-16T08:05:32.964Z,11.45
2023-03-16T08:08:01.166Z,10.57
2023-03-16T08:10:28.395Z,10.43
2023-03-16T08:12:55.267Z,11.50
2023-03-16T08:15:21.845Z,10.20
2023-03-16T08:17:48.463Z,9.02
2023-03-16T08:20:15.663Z,10.02
2023-03-16T08:22:46.331Z,8.57
2023-03-16T08:25:14.192Z,7.70
2023-03-16T08:27:42.926Z,8.05
2023-03-16T08:30:12.706Z,9.70
2023-03-16T08:32:40.997Z,8.80
2023-03-16T08:35:10.815Z,8.60
2023-03-16T08:37:37.466Z,7.72
2023-03-16T08:40:06.572Z,7.72
2023-03-16T08:42:33.262Z,7.57
2023-03-16T08:45:00.925Z,7.85
2023-03-16T08:47:27.629Z,7.60
2023-03-16T08:49:54.191Z,7.63
2023-03-16T08:52:22.691Z,8.35
2023-03-16T08:55:02.500Z,6.53
2023-03-16T08:57:29.773Z,7.03
2023-03-16T08:59:56.304Z,7.85
2023-03-16T09:02:22.842Z,6.38
2023-03-16T09:04:49.825Z,7.95
2023-03-16T09:07:16.648Z,6.63
2023-03-16T09:09:44.011Z,6.60
2023-03-16T09:12:12.355Z,6.28
2023-03-16T09:14:39.707Z,6.45
2023-03-16T09:17:07.845Z,6.53
2023-03-16T09:19:50.496Z,3.58
2023-03-16T09:22:19.808Z,4.60
2023-03-16T09:24:48.509Z,5.32
2023-03-16T09:27:15.976Z,4.47
2023-03-16T09:29:43.126Z,4.20
2023-03-16T09:32:10.241Z,4.68
2023-03-16T09:34:36.821Z,6.88
2023-03-16T09:37:03.761Z,4.45
2023-03-16T09:39:30.335Z,5.03
2023-03-16T09:42:24.731Z,5.40
2023-03-16T09:45:21.165Z,4.47
2023-03-16T09:47:50.547Z,4.53
2023-03-16T09:50:26.658Z,4.00
2023-03-16T09:53:13.835Z,3.95
2023-03-16T09:56:20.255Z,4.43
2023-03-16T09:59:23.840Z,4.25
2023-03-16T10:02:33.687Z,4.22
2023-03-16T10:07:42.657Z,3.28
2023-03-16T10:11:04.428Z,3.75
2023-03-16T10:13:52.870Z,2.75
2023-03-16T10:16:33.846Z,3.53
2023-03-16T10:19:39.238Z,3.88
2023-03-16T10:22:17.603Z,3.58
2023-03-16T10:25:13.011Z,2.47
2023-03-16T10:27:46.149Z,3.33
2023-03-16T10:30:24.647Z,3.60
2023-03-16T10:32:52.239Z,2.72
2023-03-16T10:35:41.521Z,2.83
2023-03-16T10:38:38.851Z,3.13
2023-03-16T10:41:23.816Z,3.60
2023-03-16T10:43:57.924Z,2.08
2023-03-16T10:46:27.662Z,2.40
2023-03-16T10:49:02.809Z,2.50
2023-03-16T10:51:32.750Z,2.50
2023-03-16T10:54:10.274Z,3.53
2023-03-16T10:56:37.183Z,2.97
2023-03-16T10:59:15.777Z,2.70
2023-03-16T11:01:49.900Z,2.97
2023-03-16T11:04:19.277Z,2.42
2023-03-16T11:06:55.796Z,2.53
2023-03-16T11:09:33.050Z,3.15
2023-03-16T11:12:11.970Z,3.10
2023-03-16T11:14:38.546Z,3.15
2023-03-16T11:17:16.212Z,1.77
2023-03-16T11:20:00.708Z,1.70
2023-03-16T11:22:30.388Z,1.92
2023-03-16T11:25:21.416Z,2.00
2023-03-16T11:28:13.285Z,1.33
2023-03-16T11:30:56.994Z,1.42
2023-03-16T11:33:27.135Z,1.75
2023-03-16T11:36:02.608Z,3.10
2023-03-16T11:38:56.839Z,1.33
2023-03-16T11:41:32.299Z,1.92
2023-03-16T11:44:23.822Z,1.40
2023-03-16T11:47:01.719Z,1.00
2023-03-16T11:49:44.662Z,1.50
2023-03-16T11:52:33.126Z,2.95
2023-03-16T11:55:24.947Z,2.88
2023-03-16T11:58:17.271Z,1.42
2023-03-16T12:01:08.751Z,1.80
2023-03-16T12:03:41.769Z,1.92
2023-03-16T12:06:45.630Z,1.77
2023-03-16T12:09:15.568Z,1.92
2023-03-16T12:11:51.575Z,1.50
2023-03-16T12:14:30.276Z,1.33
2023-03-16T12:17:09.975Z,1.77
2023-03-16T12:19:46.436Z,1.95
2023-03-16T12:22:22.834Z,1.70
2023-03-16T12:24:50.598Z,1.40
2023-03-16T12:27:24.866Z,2.55
2023-03-16T12:30:21.518Z,1.30
2023-03-16T12:33:20.821Z,1.80
2023-03-16T12:36:07.953Z,1.20
2023-03-16T12:38:37.761Z,1.50
2023-03-16T12:41:23.101Z,1.48
2023-03-16T12:43:52.614Z,1.45
2023-03-16T12:46:42.877Z,0.95
2023-03-16T12:49:10.246Z,1.65
2023-03-16T12:51:40.106Z,1.85
2023-03-16T12:54:25.349Z,1.48
2023-03-16T12:56:59.630Z,0.88
2023-03-16T12:59:40.374Z,0.88
2023-03-16T13:02:15.633Z,1.02
2023-03-16T13:04:44.823Z,1.00
2023-03-16T13:07:22.744Z,1.30
2023-03-16T13:09:57.621Z,1.77
2023-03-16T13:12:32.562Z,1.38
2023-03-16T13:14:59.434Z,1.25
2023-03-16T13:17:32.382Z,1.75
2023-03-16T13:22:48.550Z,6.88
2023-03-16T13:25:22.549Z,1.42
2023-03-16T13:27:54.668Z,1.25
2023-03-16T13:30:25.675Z,1.27
2023-03-16T13:33:00.510Z,1.17
2023-03-16T13:35:30.387Z,0.80
2023-03-16T13:38:05.690Z,1.33
2023-03-16T13:40:32.909Z,1.08
2023-03-16T13:42:59.571Z,1.58
2023-03-16T13:45:33.370Z,1.52
2023-03-16T13:48:03.396Z,1.40
2023-03-16T13:50:34.636Z,2.38
2023-03-16T13:53:04.789Z,1.10
2023-03-16T13:55:36.998Z,1.77
2023-03-16T13:58:04.577Z,1.58
2023-03-16T14:00:34.783Z,2.33
2023-03-16T14:03:13.338Z,1.58
2023-03-16T14:05:40.871Z,2.17
2023-03-16T14:08:15.776Z,2.53
2023-03-16T14:10:43.673Z,2.15
2023-03-16T14:13:22.548Z,1.42
2023-03-16T14:15:49.258Z,1.13
2023-03-16T14:18:23.039Z,1.40
2023-03-16T14:20:54.613Z,2.97
2023-03-16T14:23:24.791Z,2.58
2023-03-16T14:25:53.589Z,2.65
2023-03-16T14:28:27.664Z,1.65
2023-03-16T14:31:03.579Z,1.35
2023-03-16T14:33:33.014Z,1.88
2023-03-16T14:36:08.045Z,1.95
2023-03-16T14:38:37.220Z,2.33
2023-03-16T14:41:11.805Z,2.80
2023-03-16T14:43:45.969Z,1.98
2023-03-16T14:46:17.075Z,2.25
2023-03-16T14:48:45.740Z,2.30
2023-03-16T14:51:15.262Z,4.35
2023-03-16T14:53:42.058Z,2.58
2023-03-16T14:56:13.579Z,2.92
2023-03-16T14:58:41.196Z,4.20
2023-03-16T15:01:15.972Z,2.63
2023-03-16T15:03:43.436Z,2.75
2023-03-16T15:06:10.379Z,2.75
2023-03-16T15:08:44.452Z,3.00
2023-03-16T15:11:11.557Z,2.88
2023-03-16T15:13:40.902Z,2.53
2023-03-16T15:16:11.417Z,2.95
2023-03-16T15:18:39.864Z,2.00
2023-03-16T15:21:23.324Z,3.65
2023-03-16T15:23:50.071Z,3.03
2023-03-16T15:26:24.495Z,2.65
2023-03-16T15:28:51.674Z,4.25
2023-03-16T15:31:18.360Z,2.92
2023-03-16T15:33:45.604Z,2.60
2023-03-16T15:36:20.955Z,3.53
2023-03-16T15:38:50.280Z,3.20
2023-03-16T15:41:17.238Z,2.42
2023-03-16T15:43:45.624Z,5.43
2023-03-16T15:46:12.473Z,2.92
2023-03-16T15:48:39.358Z,3.45
2023-03-16T15:51:17.349Z,3.28
2023-03-16T15:53:51.330Z,3.63
2023-03-16T15:56:22.655Z,2.60
2023-03-16T15:58:50.689Z,2.60
2023-03-16T16:01:35.823Z,3.53
2023-03-16T16:04:03.432Z,2.75
2023-03-16T16:06:30.485Z,2.70
2023-03-16T16:08:57.495Z,2.90
2023-03-16T16:11:26.470Z,2.50
2023-03-16T16:13:55.817Z,4.15
2023-03-16T16:16:22.675Z,4.18
2023-03-16T16:18:49.476Z,3.92
2023-03-16T16:21:25.124Z,3.67
2023-03-16T16:23:52.899Z,3.53
2023-03-16T16:26:54.708Z,3.33
2023-03-16T16:29:24.781Z,2.78
2023-03-16T16:31:52.281Z,2.63
2023-03-16T16:34:24.325Z,3.30
2023-03-16T16:36:51.312Z,3.50
2023-03-16T16:39:17.871Z,2.65
2023-03-16T16:41:45.055Z,2.55
2023-03-16T16:44:21.912Z,3.15
2023-03-16T16:46:50.352Z,2.95
2023-03-16T16:49:24.094Z,3.40
2023-03-16T16:51:52.395Z,2.72
2023-03-16T16:54:24.685Z,3.63
2023-03-16T16:56:54.163Z,4.25
2023-03-16T16:59:24.234Z,2.90
2023-03-16T17:01:52.164Z,4.93
2023-03-16T17:04:23.237Z,2.53
2023-03-16T17:06:52.258Z,2.80
2023-03-16T17:09:18.973Z,4.82
2023-03-16T17:11:45.883Z,2.78
2023-03-16T17:14:17.407Z,3.53
2023-03-16T17:16:46.990Z,2.83
2023-03-16T17:19:22.403Z,4.13
2023-03-16T17:21:50.490Z,4.07
2023-03-16T17:24:17.581Z,2.58
2023-03-16T17:26:52.265Z,3.10
2023-03-16T17:29:23.004Z,2.47
2023-03-16T17:31:50.323Z,3.65
2023-03-16T17:34:25.275Z,52.35
2023-03-16T17:36:52.464Z,10.25
2023-03-16T17:39:23.676Z,3.05
2023-03-16T17:42:00.776Z,2.60
2023-03-16T17:44:31.733Z,2.53
2023-03-16T17:46:58.556Z,3.08
2023-03-16T17:49:28.398Z,3.28
2023-03-16T17:51:55.685Z,2.88
2023-03-16T17:54:22.372Z,3.78
2023-03-16T17:56:53.956Z,3.50
2023-03-16T17:59:22.163Z,4.40
2023-03-16T18:01:49.048Z,3.03
2023-03-16T18:04:17.524Z,3.33
2023-03-16T18:06:47.121Z,2.75
2023-03-16T18:09:15.181Z,3.50
2023-03-16T18:11:46.623Z,6.43
2023-03-16T18:14:36.176Z,3.53
2023-03-16T18:17:28.415Z,2.78
2023-03-16T18:19:55.456Z,3.42
2023-03-16T18:22:24.637Z,2.58
2023-03-16T18:24:55.226Z,3.37
2023-03-16T18:27:22.343Z,4.13
2023-03-16T18:29:49.032Z,4.22
2023-03-16T18:32:29.133Z,3.80
2023-03-16T18:37:27.938Z,3.58
2023-03-16T18:39:55.044Z,3.15
2023-03-16T18:42:23.976Z,4.75
2023-03-16T18:44:51.158Z,3.67
2023-03-16T18:47:22.876Z,3.47
2023-03-16T18:49:53.343Z,2.97
2023-03-16T18:52:23.705Z,2.63
2023-03-16T18:54:51.330Z,2.42
2023-03-16T18:57:20.100Z,3.33
2023-03-16T18:59:47.139Z,3.60
2023-03-16T19:02:36.001Z,2.92
2023-03-16T19:05:05.123Z,3.72
2023-03-16T19:07:41.005Z,3.30
2023-03-16T19:10:22.103Z,2.95
2023-03-16T19:12:49.019Z,3.10
2023-03-16T19:15:19.799Z,2.97
2023-03-16T19:17:47.046Z,3.22
2023-03-16T19:20:15.766Z,2.78
2023-03-16T19:22:44.463Z,4.18
2023-03-16T19:25:29.144Z,2.70
2023-03-16T19:27:56.025Z,4.10
2023-03-16T19:30:26.181Z,5.38
2023-03-16T19:35:21.751Z,3.38
2023-03-16T19:37:48.839Z,2.72
2023-03-16T19:40:18.745Z,3.75
2023-03-16T19:42:46.585Z,3.08
2023-03-16T19:45:36.719Z,4.07
2023-03-16T19:50:32.092Z,3.40
2023-03-16T19:52:59.259Z,3.67
2023-03-16T19:55:32.042Z,4.13
2023-03-16T19:58:07.588Z,2.80
2023-03-16T20:00:34.770Z,3.25
2023-03-16T20:03:01.508Z,3.90
2023-03-16T20:05:30.213Z,2.65
2023-03-16T20:08:01.377Z,2.13
2023-03-16T20:10:30.005Z,3.17
2023-03-16T20:12:59.001Z,2.47
2023-03-16T20:15:32.279Z,2.72
2023-03-16T20:17:59.984Z,3.50
2023-03-16T20:20:29.697Z,5.85
2023-03-16T20:22:59.596Z,5.45
2023-03-16T20:25:30.688Z,5.53
2023-03-16T20:28:01.321Z,6.80
2023-03-16T20:30:29.473Z,5.22
2023-03-16T20:32:56.867Z,3.30
2023-03-16T20:35:29.472Z,2.60
2023-03-16T20:37:56.515Z,3.85
2023-03-16T20:40:23.636Z,3.45
2023-03-16T20:42:54.994Z,3.35
2023-03-16T20:45:28.015Z,3.53
2023-03-16T20:47:54.876Z,7.15
2023-03-16T20:50:28.069Z,3.45
2023-03-16T20:52:55.194Z,3.83
2023-03-16T20:55:25.137Z,5.22
2023-03-16T20:57:53.524Z,2.90
2023-03-16T21:00:47.211Z,3.28
2023-03-16T21:03:22.410Z,6.88
2023-03-16T21:05:53.324Z,4.70
2023-03-16T21:08:20.174Z,4.40
2023-03-16T21:10:49.285Z,2.58
2023-03-16T21:13:21.837Z,3.38
2023-03-16T21:15:50.785Z,3.08
2023-03-16T21:18:19.895Z,3.00
2023-03-16T21:20:50.628Z,2.63
2023-03-16T21:23:22.549Z,3.60
2023-03-16T21:25:58.231Z,3.75
2023-03-16T21:28:27.749Z,3.63
2023-03-16T21:30:57.697Z,2.78
2023-03-16T21:33:31.342Z,4.65
2023-03-16T21:36:02.083Z,4.72
2023-03-16T21:38:30.355Z,4.70
2023-03-16T21:40:57.964Z,2.75
2023-03-16T21:43:25.470Z,5.15
2023-03-16T21:45:52.760Z,2.97
2023-03-16T21:48:23.981Z,3.65
2023-03-16T21:50:52.449Z,3.42
2023-03-16T21:53:31.001Z,4.07
2023-03-16T21:55:58.760Z,4.22
2023-03-16T21:58:25.311Z,2.97
2023-03-16T22:00:53.973Z,2.35
2023-03-16T22:03:33.012Z,3.00
2023-03-16T22:06:04.864Z,2.35
2023-03-16T22:08:34.250Z,2.85
2023-03-16T22:11:04.308Z,2.85
2023-03-16T22:13:33.379Z,3.38
2023-03-16T22:16:00.078Z,3.88
2023-03-16T22:18:28.655Z,2.35
2023-03-16T22:20:56.427Z,2.20
2023-03-16T22:23:35.667Z,2.88
2023-03-16T22:26:09.637Z,6.47
2023-03-16T22:28:36.458Z,5.18
2023-03-16T22:31:04.396Z,5.63
2023-03-16T22:33:34.718Z,5.13
2023-03-16T22:36:11.697Z,4.03
2023-03-16T22:38:39.960Z,4.35
2023-03-16T22:41:07.723Z,3.63
2023-03-16T22:43:36.896Z,5.32
2023-03-16T22:46:03.714Z,3.93
2023-03-16T22:48:31.792Z,6.35
2023-03-16T22:51:04.204Z,3.40
2023-03-16T22:53:41.432Z,4.50
2023-03-16T22:56:10.343Z,4.43
2023-03-16T22:58:41.256Z,5.97
2023-03-16T23:01:23.219Z,6.38
2023-03-16T23:03:51.424Z,10.27
2023-03-16T23:06:30.050Z,5.15
2023-03-16T23:08:56.649Z,3.35
2023-03-16T23:11:30.882Z,4.25
2023-03-16T23:13:58.068Z,3.33
2023-03-16T23:16:33.216Z,7.22
2023-03-16T23:19:00.508Z,8.57
2023-03-16T23:21:29.326Z,10.25
2023-03-16T23:24:03.456Z,8.73
2023-03-16T23:26:31.235Z,8.65
2023-03-16T23:28:58.951Z,8.88
2023-03-16T23:31:27.276Z,10.63
2023-03-16T23:33:54.022Z,4.88
2023-03-16T23:36:23.025Z,3.25
2023-03-16T23:38:50.610Z,2.92
2023-03-16T23:41:21.265Z,6.15
2023-03-16T23:43:48.728Z,5.95
2023-03-16T23:46:19.667Z,4.65
2023-03-16T23:48:48.884Z,5.70
2023-03-16T23:51:27.447Z,4.60
2023-03-16T23:53:54.446Z,3.10
2023-03-16T23:56:22.525Z,3.50
2023-03-16T23:58:49.512Z,4.95
